createdAt,value
2022-10-04T00:08:23.733Z,17.29
2022-10-04T00:18:30.362Z,17.24
2022-10-04T00:28:38.152Z,17.24
2022-10-04T00:38:44.766Z,17.24
2022-10-04T00:48:51.359Z,17.24
2022-10-04T00:58:57.832Z,17.17
2022-10-04T01:09:05.528Z,17.15
2022-10-04T01:19:11.396Z,17.02
2022-10-04T01:29:18.133Z,17.01
2022-10-04T01:39:24.806Z,17.01
2022-10-04T01:49:32.816Z,16.93
2022-10-04T01:59:38.874Z,16.80
2022-10-04T02:09:46.722Z,16.73
2022-10-04T02:19:52.813Z,16.76
2022-10-04T02:30:00.878Z,16.63
2022-10-04T02:40:07.312Z,16.48
2022-10-04T02:50:15.242Z,16.48
2022-10-04T03:00:21.376Z,16.44
2022-10-04T03:10:29.327Z,16.45
2022-10-04T03:20:35.580Z,16.36
2022-10-04T03:30:43.446Z,16.32
2022-10-04T03:40:49.574Z,16.28
2022-10-04T03:50:59.772Z,16.24
2022-10-04T04:01:05.743Z,16.38
2022-10-04T04:11:13.946Z,16.38
2022-10-04T04:21:20.152Z,16.21
2022-10-04T04:31:26.608Z,16.27
2022-10-04T04:41:33.024Z,16.25
2022-10-04T04:51:40.983Z,16.17
2022-10-04T05:01:47.262Z,16.17
2022-10-04T05:11:55.475Z,16.07
2022-10-04T05:22:01.922Z,15.98
2022-10-04T05:32:09.832Z,15.98
2022-10-04T05:42:15.818Z,16.02
2022-10-04T05:52:22.301Z,16.09
2022-10-04T06:02:29.065Z,16.09
2022-10-04T06:12:35.174Z,16.33
2022-10-04T06:22:43.042Z,16.42
2022-10-04T06:32:49.380Z,16.36
2022-10-04T06:42:55.694Z,16.45
2022-10-04T06:53:02.075Z,16.54
2022-10-04T07:03:09.878Z,16.54
2022-10-04T07:13:16.453Z,16.52
2022-10-04T07:23:28.337Z,16.80
2022-10-04T07:33:35.374Z,16.95
2022-10-04T07:43:43.409Z,16.95
2022-10-04T07:53:49.663Z,16.95
2022-10-04T08:03:57.612Z,16.95
2022-10-04T08:14:04.023Z,17.23
2022-10-04T08:24:10.235Z,17.42
2022-10-04T08:34:16.582Z,17.32
2022-10-04T08:44:24.524Z,17.27
2022-10-04T08:54:30.792Z,17.21
2022-10-04T09:04:38.442Z,17.21
2022-10-04T09:14:44.834Z,17.64
2022-10-04T09:24:52.784Z,17.92
2022-10-04T09:34:59.299Z,18.26
2022-10-04T09:45:05.344Z,18.48
2022-10-04T09:55:12.099Z,19.05
2022-10-04T10:05:18.140Z,19.91
2022-10-04T10:15:24.516Z,20.58
2022-10-04T10:25:30.660Z,21.15
2022-10-04T10:35:37.039Z,21.71
2022-10-04T10:45:47.826Z,22.55
2022-10-04T10:55:53.278Z,22.55
2022-10-04T11:06:01.579Z,23.04
2022-10-04T11:16:08.251Z,23.39
2022-10-04T11:26:15.157Z,23.71
2022-10-04T11:36:21.511Z,23.77
2022-10-04T11:46:30.894Z,23.81
2022-10-04T11:56:36.813Z,23.90
2022-10-04T12:06:45.041Z,24.06
2022-10-04T12:16:51.783Z,24.17
2022-10-04T12:26:58.008Z,24.36
2022-10-04T12:37:04.490Z,24.67
2022-10-04T12:47:12.504Z,24.95
2022-10-04T12:57:18.816Z,25.12
2022-10-04T13:07:26.767Z,25.32
2022-10-04T13:17:36.086Z,25.44
2022-10-04T13:27:42.795Z,25.45
2022-10-04T13:37:49.026Z,25.45
2022-10-04T13:47:57.164Z,25.38
2022-10-04T13:58:03.595Z,25.34
2022-10-04T14:08:11.795Z,25.31
2022-10-04T14:18:17.883Z,25.21
2022-10-04T14:28:26.162Z,25.09
2022-10-04T14:38:32.476Z,24.90
2022-10-04T14:48:38.648Z,24.55
2022-10-04T14:58:44.386Z,24.00
2022-10-04T15:08:51.401Z,23.45
2022-10-04T15:18:57.356Z,22.96
2022-10-04T15:29:05.259Z,22.96
2022-10-04T15:39:11.288Z,22.18
2022-10-04T15:49:17.146Z,21.72
2022-10-04T15:59:22.865Z,21.72
2022-10-04T16:09:29.264Z,21.14
2022-10-04T16:19:35.618Z,21.14
2022-10-04T16:29:42.040Z,20.73
2022-10-04T16:39:48.103Z,20.73
2022-10-04T16:49:53.953Z,20.49
2022-10-04T17:00:00.579Z,19.81
2022-10-04T17:10:06.744Z,19.42
2022-10-04T17:20:13.593Z,19.26
2022-10-04T17:30:24.546Z,19.04
2022-10-04T17:41:49.036Z,19.04
2022-10-04T17:51:56.693Z,18.80
2022-10-04T18:02:02.675Z,18.77
2022-10-04T18:12:08.434Z,18.59
2022-10-04T18:22:13.857Z,18.42
2022-10-04T18:32:19.277Z,18.42
2022-10-04T18:42:24.446Z,18.32
2022-10-04T18:52:29.628Z,18.22
2022-10-04T19:02:35.440Z,18.02
2022-10-04T19:12:41.127Z,17.91
2022-10-04T19:22:46.572Z,17.84
2022-10-04T19:32:51.596Z,17.84
2022-10-04T19:42:56.977Z,17.76
2022-10-04T19:53:02.635Z,17.44
2022-10-04T20:03:08.329Z,17.60
2022-10-04T20:13:13.793Z,17.60
2022-10-04T20:23:19.303Z,17.17
2022-10-04T20:33:29.702Z,17.03
2022-10-04T20:43:35.038Z,16.86
2022-10-04T20:53:40.330Z,16.86
2022-10-04T21:03:45.973Z,16.63
2022-10-04T21:13:51.481Z,16.63
2022-10-04T21:23:56.850Z,16.54
2022-10-04T21:34:02.295Z,16.45
2022-10-04T21:44:07.529Z,16.36
2022-10-04T21:54:13.200Z,16.32
2022-10-04T22:04:18.733Z,16.29
2022-10-04T22:14:24.110Z,16.34
2022-10-04T22:24:32.141Z,16.34
2022-10-04T22:34:38.547Z,16.44
2022-10-04T22:44:45.050Z,16.58
2022-10-04T22:54:51.379Z,16.58
2022-10-04T23:04:59.131Z,16.45
2022-10-04T23:15:05.523Z,16.32
2022-10-04T23:25:11.827Z,16.33
2022-10-04T23:35:18.136Z,16.41
2022-10-04T23:45:26.111Z,16.24
2022-10-04T23:55:31.956Z,16.24
